sensor_id;sensor_type;location;lat;lon;timestamp;P1;durP1;ratioP1;P2;durP2;ratioP2
18159;SDS011;9205;52.032;4.314;2023-02-08T00:01:06;12.23;;;5.50;;
18159;SDS011;9205;52.032;4.314;2023-02-08T00:03:41;13.23;;;6.67;;
18159;SDS011;9205;52.032;4.314;2023-02-08T00:06:12;13.77;;;6.30;;
18159;SDS011;9205;52.032;4.314;2023-02-08T00:11:33;11.70;;;6.63;;
18159;SDS011;9205;52.032;4.314;2023-02-08T00:14:09;11.90;;;6.20;;
18159;SDS011;9205;52.032;4.314;2023-02-08T00:16:47;14.80;;;6.40;;
18159;SDS011;9205;52.032;4.314;2023-02-08T00:19:22;14.27;;;6.83;;
18159;SDS011;9205;52.032;4.314;2023-02-08T00:21:52;15.10;;;6.63;;
18159;SDS011;9205;52.032;4.314;2023-02-08T00:24:24;17.30;;;7.63;;
18159;SDS011;9205;52.032;4.314;2023-02-08T00:27:05;14.77;;;7.00;;
18159;SDS011;9205;52.032;4.314;2023-02-08T00:29:49;13.60;;;6.77;;
18159;SDS011;9205;52.032;4.314;2023-02-08T00:32:48;15.30;;;7.73;;
18159;SDS011;9205;52.032;4.314;2023-02-08T00:35:29;13.80;;;6.93;;
18159;SDS011;9205;52.032;4.314;2023-02-08T00:38:03;17.00;;;7.13;;
18159;SDS011;9205;52.032;4.314;2023-02-08T00:40:35;12.63;;;6.63;;
18159;SDS011;9205;52.032;4.314;2023-02-08T00:43:07;13.80;;;7.07;;
18159;SDS011;9205;52.032;4.314;2023-02-08T00:45:36;15.30;;;6.80;;
18159;SDS011;9205;52.032;4.314;2023-02-08T00:48:09;11.63;;;6.67;;
18159;SDS011;9205;52.032;4.314;2023-02-08T00:50:58;12.87;;;6.03;;
18159;SDS011;9205;52.032;4.314;2023-02-08T00:53:39;12.87;;;6.70;;
18159;SDS011;9205;52.032;4.314;2023-02-08T00:56:12;14.23;;;6.27;;
18159;SDS011;9205;52.032;4.314;2023-02-08T00:58:51;11.93;;;6.63;;
18159;SDS011;9205;52.032;4.314;2023-02-08T01:01:25;12.67;;;6.27;;
18159;SDS011;9205;52.032;4.314;2023-02-08T01:03:55;12.47;;;6.87;;
18159;SDS011;9205;52.032;4.314;2023-02-08T01:06:26;12.30;;;6.30;;
18159;SDS011;9205;52.032;4.314;2023-02-08T01:08:55;16.53;;;6.80;;
18159;SDS011;9205;52.032;4.314;2023-02-08T01:11:30;15.77;;;6.93;;
18159;SDS011;9205;52.032;4.314;2023-02-08T01:13:59;10.37;;;5.90;;
18159;SDS011;9205;52.032;4.314;2023-02-08T01:16:28;18.90;;;6.77;;
18159;SDS011;9205;52.032;4.314;2023-02-08T01:19:01;15.27;;;6.87;;
18159;SDS011;9205;52.032;4.314;2023-02-08T01:21:38;19.47;;;6.83;;
18159;SDS011;9205;52.032;4.314;2023-02-08T01:24:10;12.37;;;5.80;;
18159;SDS011;9205;52.032;4.314;2023-02-08T01:26:39;14.80;;;6.63;;
18159;SDS011;9205;52.032;4.314;2023-02-08T01:29:20;13.77;;;6.43;;
18159;SDS011;9205;52.032;4.314;2023-02-08T01:31:50;14.70;;;6.80;;
18159;SDS011;9205;52.032;4.314;2023-02-08T01:34:21;12.70;;;6.20;;
18159;SDS011;9205;52.032;4.314;2023-02-08T01:36:52;15.33;;;7.03;;
18159;SDS011;9205;52.032;4.314;2023-02-08T01:39:22;13.13;;;6.60;;
18159;SDS011;9205;52.032;4.314;2023-02-08T01:41:57;10.03;;;6.03;;
18159;SDS011;9205;52.032;4.314;2023-02-08T01:48:00;14.67;;;6.80;;
18159;SDS011;9205;52.032;4.314;2023-02-08T01:50:42;12.07;;;6.67;;
18159;SDS011;9205;52.032;4.314;2023-02-08T01:53:23;18.70;;;6.43;;
18159;SDS011;9205;52.032;4.314;2023-02-08T01:56:03;13.27;;;6.10;;
18159;SDS011;9205;52.032;4.314;2023-02-08T01:58:38;12.20;;;6.00;;
18159;SDS011;9205;52.032;4.314;2023-02-08T02:01:17;13.70;;;6.23;;
18159;SDS011;9205;52.032;4.314;2023-02-08T02:03:52;15.83;;;6.80;;
18159;SDS011;9205;52.032;4.314;2023-02-08T02:06:35;11.90;;;6.20;;
18159;SDS011;9205;52.032;4.314;2023-02-08T02:09:22;12.90;;;6.27;;
18159;SDS011;9205;52.032;4.314;2023-02-08T02:12:17;12.70;;;6.00;;
18159;SDS011;9205;52.032;4.314;2023-02-08T02:14:53;11.83;;;5.43;;
18159;SDS011;9205;52.032;4.314;2023-02-08T02:17:32;10.27;;;5.80;;
18159;SDS011;9205;52.032;4.314;2023-02-08T02:20:03;13.40;;;6.40;;
18159;SDS011;9205;52.032;4.314;2023-02-08T02:30:11;12.10;;;5.93;;
18159;SDS011;9205;52.032;4.314;2023-02-08T02:33:37;9.60;;;5.67;;
18159;SDS011;9205;52.032;4.314;2023-02-08T02:36:32;14.83;;;6.13;;
18159;SDS011;9205;52.032;4.314;2023-02-08T02:39:20;13.53;;;6.53;;
18159;SDS011;9205;52.032;4.314;2023-02-08T02:42:05;15.33;;;6.40;;
18159;SDS011;9205;52.032;4.314;2023-02-08T02:45:03;11.97;;;6.07;;
18159;SDS011;9205;52.032;4.314;2023-02-08T02:47:44;13.30;;;6.67;;
18159;SDS011;9205;52.032;4.314;2023-02-08T02:50:29;13.77;;;6.30;;
18159;SDS011;9205;52.032;4.314;2023-02-08T02:53:06;13.17;;;6.33;;
18159;SDS011;9205;52.032;4.314;2023-02-08T02:55:46;14.67;;;7.13;;
18159;SDS011;9205;52.032;4.314;2023-02-08T02:58:25;13.90;;;7.07;;
18159;SDS011;9205;52.032;4.314;2023-02-08T03:00:57;14.93;;;6.60;;
18159;SDS011;9205;52.032;4.314;2023-02-08T03:03:32;13.00;;;6.53;;
18159;SDS011;9205;52.032;4.314;2023-02-08T03:06:04;13.20;;;6.33;;
18159;SDS011;9205;52.032;4.314;2023-02-08T03:08:44;10.80;;;6.87;;
18159;SDS011;9205;52.032;4.314;2023-02-08T03:11:33;12.10;;;5.37;;
18159;SDS011;9205;52.032;4.314;2023-02-08T03:14:09;13.00;;;5.87;;
18159;SDS011;9205;52.032;4.314;2023-02-08T03:17:03;12.60;;;6.33;;
18159;SDS011;9205;52.032;4.314;2023-02-08T03:20:06;13.80;;;6.80;;
18159;SDS011;9205;52.032;4.314;2023-02-08T03:22:48;21.23;;;7.07;;
18159;SDS011;9205;52.032;4.314;2023-02-08T03:25:28;14.27;;;5.93;;
18159;SDS011;9205;52.032;4.314;2023-02-08T03:28:08;15.30;;;6.40;;
18159;SDS011;9205;52.032;4.314;2023-02-08T03:30:50;13.17;;;6.17;;
18159;SDS011;9205;52.032;4.314;2023-02-08T03:33:29;10.73;;;6.10;;
18159;SDS011;9205;52.032;4.314;2023-02-08T03:36:07;13.10;;;6.30;;
18159;SDS011;9205;52.032;4.314;2023-02-08T03:38:44;14.07;;;7.07;;
18159;SDS011;9205;52.032;4.314;2023-02-08T03:41:27;12.17;;;6.13;;
18159;SDS011;9205;52.032;4.314;2023-02-08T03:44:05;13.43;;;7.00;;
18159;SDS011;9205;52.032;4.314;2023-02-08T03:46:51;15.03;;;6.93;;
18159;SDS011;9205;52.032;4.314;2023-02-08T03:49:33;12.90;;;6.87;;
18159;SDS011;9205;52.032;4.314;2023-02-08T03:52:20;12.60;;;6.37;;
18159;SDS011;9205;52.032;4.314;2023-02-08T03:55:00;12.93;;;6.50;;
18159;SDS011;9205;52.032;4.314;2023-02-08T03:57:50;12.03;;;5.80;;
18159;SDS011;9205;52.032;4.314;2023-02-08T04:00:33;13.60;;;6.13;;
18159;SDS011;9205;52.032;4.314;2023-02-08T04:03:18;11.63;;;6.00;;
18159;SDS011;9205;52.032;4.314;2023-02-08T04:06:08;12.80;;;6.30;;
18159;SDS011;9205;52.032;4.314;2023-02-08T04:08:54;14.30;;;6.53;;
18159;SDS011;9205;52.032;4.314;2023-02-08T04:11:31;15.07;;;6.53;;
18159;SDS011;9205;52.032;4.314;2023-02-08T04:14:05;13.87;;;6.70;;
18159;SDS011;9205;52.032;4.314;2023-02-08T04:16:44;12.93;;;6.67;;
18159;SDS011;9205;52.032;4.314;2023-02-08T04:19:21;13.27;;;6.50;;
18159;SDS011;9205;52.032;4.314;2023-02-08T04:21:59;12.27;;;5.77;;
18159;SDS011;9205;52.032;4.314;2023-02-08T04:24:32;13.40;;;6.00;;
18159;SDS011;9205;52.032;4.314;2023-02-08T04:27:13;14.23;;;6.60;;
18159;SDS011;9205;52.032;4.314;2023-02-08T04:29:56;13.00;;;6.53;;
18159;SDS011;9205;52.032;4.314;2023-02-08T04:32:34;13.03;;;6.40;;
18159;SDS011;9205;52.032;4.314;2023-02-08T04:35:20;15.53;;;6.80;;
18159;SDS011;9205;52.032;4.314;2023-02-08T04:38:07;13.37;;;5.97;;
18159;SDS011;9205;52.032;4.314;2023-02-08T04:40:38;13.83;;;6.80;;
18159;SDS011;9205;52.032;4.314;2023-02-08T04:43:14;15.40;;;6.77;;
18159;SDS011;9205;52.032;4.314;2023-02-08T04:45:56;15.93;;;7.07;;
18159;SDS011;9205;52.032;4.314;2023-02-08T04:48:36;14.73;;;6.73;;
18159;SDS011;9205;52.032;4.314;2023-02-08T04:51:19;15.13;;;7.53;;
18159;SDS011;9205;52.032;4.314;2023-02-08T04:54:03;14.30;;;6.23;;
18159;SDS011;9205;52.032;4.314;2023-02-08T04:56:51;14.43;;;6.07;;
18159;SDS011;9205;52.032;4.314;2023-02-08T04:59:40;14.60;;;6.60;;
18159;SDS011;9205;52.032;4.314;2023-02-08T05:02:18;16.20;;;6.90;;
18159;SDS011;9205;52.032;4.314;2023-02-08T05:05:00;14.47;;;6.50;;
18159;SDS011;9205;52.032;4.314;2023-02-08T05:07:31;11.27;;;6.50;;
18159;SDS011;9205;52.032;4.314;2023-02-08T05:10:00;12.97;;;5.90;;
18159;SDS011;9205;52.032;4.314;2023-02-08T05:12:40;12.03;;;5.83;;
18159;SDS011;9205;52.032;4.314;2023-02-08T05:15:23;11.30;;;5.97;;
18159;SDS011;9205;52.032;4.314;2023-02-08T05:18:02;13.33;;;5.80;;
18159;SDS011;9205;52.032;4.314;2023-02-08T05:20:55;11.67;;;6.57;;
18159;SDS011;9205;52.032;4.314;2023-02-08T05:23:32;13.10;;;6.50;;
18159;SDS011;9205;52.032;4.314;2023-02-08T05:26:10;14.37;;;6.17;;
18159;SDS011;9205;52.032;4.314;2023-02-08T05:28:48;10.87;;;6.03;;
18159;SDS011;9205;52.032;4.314;2023-02-08T05:31:22;12.53;;;6.33;;
18159;SDS011;9205;52.032;4.314;2023-02-08T05:33:57;16.53;;;6.67;;
18159;SDS011;9205;52.032;4.314;2023-02-08T05:36:29;13.70;;;6.17;;
18159;SDS011;9205;52.032;4.314;2023-02-08T05:39:06;17.00;;;6.97;;
18159;SDS011;9205;52.032;4.314;2023-02-08T05:41:36;13.03;;;6.90;;
18159;SDS011;9205;52.032;4.314;2023-02-08T05:44:05;11.57;;;6.30;;
18159;SDS011;9205;52.032;4.314;2023-02-08T05:46:36;14.70;;;6.47;;
18159;SDS011;9205;52.032;4.314;2023-02-08T05:49:11;13.40;;;6.67;;
18159;SDS011;9205;52.032;4.314;2023-02-08T05:51:48;12.77;;;5.87;;
18159;SDS011;9205;52.032;4.314;2023-02-08T05:54:17;16.33;;;5.70;;
18159;SDS011;9205;52.032;4.314;2023-02-08T05:56:53;12.30;;;5.40;;
18159;SDS011;9205;52.032;4.314;2023-02-08T05:59:25;12.50;;;6.73;;
18159;SDS011;9205;52.032;4.314;2023-02-08T06:01:56;12.00;;;6.30;;
18159;SDS011;9205;52.032;4.314;2023-02-08T06:04:26;12.63;;;6.27;;
18159;SDS011;9205;52.032;4.314;2023-02-08T06:06:55;15.07;;;6.50;;
18159;SDS011;9205;52.032;4.314;2023-02-08T06:09:28;17.23;;;7.70;;
18159;SDS011;9205;52.032;4.314;2023-02-08T06:12:00;13.60;;;6.70;;
18159;SDS011;9205;52.032;4.314;2023-02-08T06:14:30;14.17;;;6.33;;
18159;SDS011;9205;52.032;4.314;2023-02-08T06:17:04;13.27;;;6.57;;
18159;SDS011;9205;52.032;4.314;2023-02-08T06:19:34;13.57;;;6.60;;
18159;SDS011;9205;52.032;4.314;2023-02-08T06:22:03;16.50;;;6.90;;
18159;SDS011;9205;52.032;4.314;2023-02-08T06:24:35;11.83;;;6.63;;
18159;SDS011;9205;52.032;4.314;2023-02-08T06:27:04;13.40;;;6.60;;
18159;SDS011;9205;52.032;4.314;2023-02-08T06:29:38;11.80;;;6.23;;
18159;SDS011;9205;52.032;4.314;2023-02-08T06:32:18;12.23;;;6.00;;
18159;SDS011;9205;52.032;4.314;2023-02-08T06:34:54;13.83;;;6.07;;
18159;SDS011;9205;52.032;4.314;2023-02-08T06:37:34;13.03;;;6.70;;
18159;SDS011;9205;52.032;4.314;2023-02-08T06:40:08;12.43;;;6.23;;
18159;SDS011;9205;52.032;4.314;2023-02-08T06:42:52;14.27;;;7.17;;
18159;SDS011;9205;52.032;4.314;2023-02-08T06:45:28;16.83;;;6.87;;
18159;SDS011;9205;52.032;4.314;2023-02-08T06:48:07;10.60;;;6.17;;
18159;SDS011;9205;52.032;4.314;2023-02-08T06:50:44;12.10;;;5.70;;
18159;SDS011;9205;52.032;4.314;2023-02-08T06:53:20;11.23;;;5.57;;
18159;SDS011;9205;52.032;4.314;2023-02-08T06:55:56;13.93;;;7.20;;
18159;SDS011;9205;52.032;4.314;2023-02-08T06:58:28;11.93;;;6.60;;
18159;SDS011;9205;52.032;4.314;2023-02-08T07:01:02;11.27;;;7.00;;
18159;SDS011;9205;52.032;4.314;2023-02-08T07:04:10;13.10;;;6.70;;
18159;SDS011;9205;52.032;4.314;2023-02-08T07:06:50;12.00;;;6.37;;
18159;SDS011;9205;52.032;4.314;2023-02-08T07:10:39;10.27;;;5.27;;
18159;SDS011;9205;52.032;4.314;2023-02-08T07:13:22;14.17;;;6.33;;
18159;SDS011;9205;52.032;4.314;2023-02-08T07:16:22;13.47;;;7.53;;
18159;SDS011;9205;52.032;4.314;2023-02-08T07:19:03;11.43;;;6.27;;
18159;SDS011;9205;52.032;4.314;2023-02-08T07:21:43;16.10;;;7.63;;
18159;SDS011;9205;52.032;4.314;2023-02-08T07:24:32;14.40;;;6.63;;
18159;SDS011;9205;52.032;4.314;2023-02-08T07:27:03;13.53;;;6.33;;
18159;SDS011;9205;52.032;4.314;2023-02-08T07:29:50;15.00;;;7.43;;
18159;SDS011;9205;52.032;4.314;2023-02-08T07:36:14;11.63;;;6.37;;
18159;SDS011;9205;52.032;4.314;2023-02-08T07:39:09;12.87;;;6.67;;
18159;SDS011;9205;52.032;4.314;2023-02-08T07:41:50;13.63;;;6.80;;
18159;SDS011;9205;52.032;4.314;2023-02-08T07:44:27;12.30;;;6.20;;
18159;SDS011;9205;52.032;4.314;2023-02-08T07:47:09;14.37;;;6.90;;
18159;SDS011;9205;52.032;4.314;2023-02-08T07:49:38;12.77;;;6.70;;
18159;SDS011;9205;52.032;4.314;2023-02-08T07:52:09;14.07;;;7.10;;
18159;SDS011;9205;52.032;4.314;2023-02-08T07:54:55;16.53;;;7.07;;
18159;SDS011;9205;52.032;4.314;2023-02-08T07:57:44;13.53;;;6.40;;
18159;SDS011;9205;52.032;4.314;2023-02-08T08:04:51;15.67;;;6.70;;
18159;SDS011;9205;52.032;4.314;2023-02-08T08:07:13;13.90;;;5.87;;
18159;SDS011;9205;52.032;4.314;2023-02-08T08:09:50;10.67;;;6.23;;
18159;SDS011;9205;52.032;4.314;2023-02-08T08:12:24;12.43;;;6.83;;
18159;SDS011;9205;52.032;4.314;2023-02-08T08:15:03;11.70;;;6.73;;
18159;SDS011;9205;52.032;4.314;2023-02-08T08:17:35;14.90;;;6.93;;
18159;SDS011;9205;52.032;4.314;2023-02-08T08:20:36;14.00;;;8.23;;
18159;SDS011;9205;52.032;4.314;2023-02-08T08:23:13;13.03;;;6.70;;
18159;SDS011;9205;52.032;4.314;2023-02-08T08:25:41;15.37;;;8.03;;
18159;SDS011;9205;52.032;4.314;2023-02-08T08:28:17;11.77;;;6.53;;
18159;SDS011;9205;52.032;4.314;2023-02-08T08:30:47;13.73;;;6.67;;
18159;SDS011;9205;52.032;4.314;2023-02-08T08:33:17;12.50;;;6.33;;
18159;SDS011;9205;52.032;4.314;2023-02-08T08:35:47;14.40;;;6.67;;
18159;SDS011;9205;52.032;4.314;2023-02-08T08:38:18;13.23;;;7.80;;
18159;SDS011;9205;52.032;4.314;2023-02-08T08:40:45;12.77;;;7.00;;
18159;SDS011;9205;52.032;4.314;2023-02-08T08:43:19;11.57;;;7.00;;
18159;SDS011;9205;52.032;4.314;2023-02-08T08:45:49;15.53;;;7.37;;
18159;SDS011;9205;52.032;4.314;2023-02-08T08:48:20;19.10;;;7.93;;
18159;SDS011;9205;52.032;4.314;2023-02-08T08:50:50;15.50;;;7.37;;
18159;SDS011;9205;52.032;4.314;2023-02-08T08:53:23;16.03;;;7.60;;
18159;SDS011;9205;52.032;4.314;2023-02-08T08:55:54;14.10;;;7.50;;
18159;SDS011;9205;52.032;4.314;2023-02-08T08:58:21;16.80;;;7.10;;
18159;SDS011;9205;52.032;4.314;2023-02-08T09:00:55;14.40;;;7.07;;
18159;SDS011;9205;52.032;4.314;2023-02-08T09:03:27;14.03;;;7.40;;
18159;SDS011;9205;52.032;4.314;2023-02-08T09:05:58;16.33;;;8.07;;
18159;SDS011;9205;52.032;4.314;2023-02-08T09:08:30;12.70;;;6.33;;
18159;SDS011;9205;52.032;4.314;2023-02-08T09:11:02;16.67;;;7.97;;
18159;SDS011;9205;52.032;4.314;2023-02-08T09:13:39;16.53;;;7.90;;
18159;SDS011;9205;52.032;4.314;2023-02-08T09:16:22;19.60;;;8.07;;
18159;SDS011;9205;52.032;4.314;2023-02-08T09:18:51;14.57;;;7.60;;
18159;SDS011;9205;52.032;4.314;2023-02-08T09:21:19;13.57;;;7.23;;
18159;SDS011;9205;52.032;4.314;2023-02-08T09:23:51;13.83;;;8.03;;
18159;SDS011;9205;52.032;4.314;2023-02-08T09:26:19;15.07;;;7.67;;
18159;SDS011;9205;52.032;4.314;2023-02-08T09:28:51;16.07;;;7.87;;
18159;SDS011;9205;52.032;4.314;2023-02-08T09:31:22;14.63;;;7.93;;
18159;SDS011;9205;52.032;4.314;2023-02-08T09:33:53;16.37;;;7.83;;
18159;SDS011;9205;52.032;4.314;2023-02-08T09:36:39;14.90;;;7.80;;
18159;SDS011;9205;52.032;4.314;2023-02-08T09:39:28;14.90;;;7.90;;
18159;SDS011;9205;52.032;4.314;2023-02-08T09:42:27;13.90;;;7.40;;
18159;SDS011;9205;52.032;4.314;2023-02-08T09:45:21;13.20;;;7.63;;
18159;SDS011;9205;52.032;4.314;2023-02-08T09:48:05;14.50;;;7.57;;
18159;SDS011;9205;52.032;4.314;2023-02-08T09:50:50;15.77;;;7.17;;
18159;SDS011;9205;52.032;4.314;2023-02-08T09:53:27;16.27;;;8.27;;
18159;SDS011;9205;52.032;4.314;2023-02-08T09:56:01;19.63;;;8.37;;
18159;SDS011;9205;52.032;4.314;2023-02-08T09:58:36;14.27;;;7.53;;
18159;SDS011;9205;52.032;4.314;2023-02-08T10:01:20;13.87;;;7.47;;
18159;SDS011;9205;52.032;4.314;2023-02-08T10:03:54;13.97;;;7.33;;
18159;SDS011;9205;52.032;4.314;2023-02-08T10:06:27;14.53;;;7.47;;
18159;SDS011;9205;52.032;4.314;2023-02-08T10:08:57;15.63;;;7.30;;
18159;SDS011;9205;52.032;4.314;2023-02-08T10:11:41;13.77;;;7.40;;
18159;SDS011;9205;52.032;4.314;2023-02-08T10:14:26;15.60;;;7.70;;
18159;SDS011;9205;52.032;4.314;2023-02-08T10:20:27;13.83;;;6.80;;
18159;SDS011;9205;52.032;4.314;2023-02-08T10:23:18;20.20;;;7.60;;
18159;SDS011;9205;52.032;4.314;2023-02-08T10:26:09;18.60;;;8.00;;
18159;SDS011;9205;52.032;4.314;2023-02-08T10:29:06;15.57;;;7.13;;
18159;SDS011;9205;52.032;4.314;2023-02-08T10:32:27;12.27;;;7.30;;
18159;SDS011;9205;52.032;4.314;2023-02-08T10:35:21;16.03;;;7.80;;
18159;SDS011;9205;52.032;4.314;2023-02-08T10:38:08;13.23;;;7.00;;
18159;SDS011;9205;52.032;4.314;2023-02-08T10:40:59;14.37;;;6.77;;
18159;SDS011;9205;52.032;4.314;2023-02-08T10:43:34;12.10;;;6.03;;
18159;SDS011;9205;52.032;4.314;2023-02-08T10:46:18;11.07;;;6.40;;
18159;SDS011;9205;52.032;4.314;2023-02-08T10:49:08;14.77;;;6.83;;
18159;SDS011;9205;52.032;4.314;2023-02-08T10:51:47;12.63;;;6.67;;
18159;SDS011;9205;52.032;4.314;2023-02-08T10:54:18;13.33;;;6.47;;
18159;SDS011;9205;52.032;4.314;2023-02-08T10:56:50;15.37;;;7.07;;
18159;SDS011;9205;52.032;4.314;2023-02-08T10:59:35;12.67;;;6.47;;
18159;SDS011;9205;52.032;4.314;2023-02-08T11:02:38;12.83;;;6.30;;
18159;SDS011;9205;52.032;4.314;2023-02-08T11:06:14;9.80;;;5.70;;
18159;SDS011;9205;52.032;4.314;2023-02-08T11:08:53;15.93;;;7.20;;
18159;SDS011;9205;52.032;4.314;2023-02-08T11:15:20;10.37;;;5.50;;
18159;SDS011;9205;52.032;4.314;2023-02-08T11:17:54;11.77;;;5.73;;
18159;SDS011;9205;52.032;4.314;2023-02-08T11:20:30;12.00;;;5.80;;
18159;SDS011;9205;52.032;4.314;2023-02-08T11:23:15;11.93;;;5.90;;
18159;SDS011;9205;52.032;4.314;2023-02-08T11:25:54;12.20;;;5.13;;
18159;SDS011;9205;52.032;4.314;2023-02-08T11:28:58;10.63;;;5.73;;
18159;SDS011;9205;52.032;4.314;2023-02-08T11:31:34;10.77;;;6.27;;
18159;SDS011;9205;52.032;4.314;2023-02-08T11:34:07;10.70;;;5.50;;
18159;SDS011;9205;52.032;4.314;2023-02-08T11:36:42;11.07;;;5.50;;
18159;SDS011;9205;52.032;4.314;2023-02-08T11:39:20;11.37;;;5.07;;
18159;SDS011;9205;52.032;4.314;2023-02-08T11:41:55;10.77;;;6.00;;
18159;SDS011;9205;52.032;4.314;2023-02-08T11:44:29;9.23;;;5.23;;
18159;SDS011;9205;52.032;4.314;2023-02-08T11:55:24;10.80;;;5.47;;
18159;SDS011;9205;52.032;4.314;2023-02-08T11:58:22;8.70;;;5.10;;
18159;SDS011;9205;52.032;4.314;2023-02-08T12:02:19;15.47;;;5.83;;
18159;SDS011;9205;52.032;4.314;2023-02-08T12:04:47;10.90;;;4.53;;
18159;SDS011;9205;52.032;4.314;2023-02-08T12:07:34;9.33;;;4.93;;
18159;SDS011;9205;52.032;4.314;2023-02-08T12:10:47;9.83;;;5.43;;
18159;SDS011;9205;52.032;4.314;2023-02-08T12:17:11;9.77;;;5.17;;
18159;SDS011;9205;52.032;4.314;2023-02-08T12:26:26;13.73;;;6.17;;
18159;SDS011;9205;52.032;4.314;2023-02-08T12:29:19;8.87;;;4.53;;
18159;SDS011;9205;52.032;4.314;2023-02-08T12:44:32;8.53;;;4.80;;
18159;SDS011;9205;52.032;4.314;2023-02-08T12:47:35;8.93;;;4.90;;
18159;SDS011;9205;52.032;4.314;2023-02-08T13:12:54;7.50;;;3.97;;
18159;SDS011;9205;52.032;4.314;2023-02-08T13:15:29;10.03;;;4.50;;
18159;SDS011;9205;52.032;4.314;2023-02-08T13:18:19;9.70;;;4.77;;
18159;SDS011;9205;52.032;4.314;2023-02-08T13:21:00;9.97;;;4.50;;
18159;SDS011;9205;52.032;4.314;2023-02-08T13:23:34;8.57;;;4.50;;
18159;SDS011;9205;52.032;4.314;2023-02-08T13:26:07;8.90;;;4.53;;
18159;SDS011;9205;52.032;4.314;2023-02-08T13:28:47;7.83;;;4.40;;
18159;SDS011;9205;52.032;4.314;2023-02-08T13:31:19;9.03;;;4.80;;
18159;SDS011;9205;52.032;4.314;2023-02-08T13:33:51;7.77;;;3.87;;
18159;SDS011;9205;52.032;4.314;2023-02-08T13:36:27;7.77;;;3.87;;
18159;SDS011;9205;52.032;4.314;2023-02-08T13:38:59;10.60;;;5.07;;
18159;SDS011;9205;52.032;4.314;2023-02-08T13:41:33;7.13;;;4.57;;
18159;SDS011;9205;52.032;4.314;2023-02-08T13:44:06;10.17;;;5.20;;
18159;SDS011;9205;52.032;4.314;2023-02-08T13:46:43;9.37;;;4.73;;
18159;SDS011;9205;52.032;4.314;2023-02-08T14:01:31;8.50;;;4.47;;
18159;SDS011;9205;52.032;4.314;2023-02-08T14:04:15;9.37;;;4.83;;
18159;SDS011;9205;52.032;4.314;2023-02-08T14:07:37;9.23;;;5.00;;
18159;SDS011;9205;52.032;4.314;2023-02-08T14:10:50;9.57;;;4.10;;
18159;SDS011;9205;52.032;4.314;2023-02-08T14:13:39;9.43;;;4.10;;
18159;SDS011;9205;52.032;4.314;2023-02-08T14:16:27;9.83;;;4.57;;
18159;SDS011;9205;52.032;4.314;2023-02-08T14:19:20;10.47;;;4.50;;
18159;SDS011;9205;52.032;4.314;2023-02-08T14:21:58;8.90;;;4.07;;
18159;SDS011;9205;52.032;4.314;2023-02-08T14:24:31;7.27;;;4.17;;
18159;SDS011;9205;52.032;4.314;2023-02-08T14:27:04;9.30;;;4.57;;
18159;SDS011;9205;52.032;4.314;2023-02-08T14:29:36;7.33;;;3.60;;
18159;SDS011;9205;52.032;4.314;2023-02-08T14:32:05;8.50;;;4.37;;
18159;SDS011;9205;52.032;4.314;2023-02-08T14:34:34;8.07;;;4.30;;
18159;SDS011;9205;52.032;4.314;2023-02-08T14:37:25;8.93;;;4.07;;
18159;SDS011;9205;52.032;4.314;2023-02-08T14:43:50;7.30;;;4.13;;
18159;SDS011;9205;52.032;4.314;2023-02-08T14:49:14;7.43;;;4.33;;
18159;SDS011;9205;52.032;4.314;2023-02-08T14:51:49;12.47;;;4.80;;
18159;SDS011;9205;52.032;4.314;2023-02-08T14:54:37;10.13;;;4.67;;
18159;SDS011;9205;52.032;4.314;2023-02-08T14:57:18;10.90;;;5.03;;
18159;SDS011;9205;52.032;4.314;2023-02-08T14:59:57;10.93;;;4.70;;
18159;SDS011;9205;52.032;4.314;2023-02-08T15:02:30;8.23;;;3.90;;
18159;SDS011;9205;52.032;4.314;2023-02-08T15:05:18;8.73;;;4.67;;
18159;SDS011;9205;52.032;4.314;2023-02-08T15:07:50;10.23;;;4.27;;
18159;SDS011;9205;52.032;4.314;2023-02-08T15:10:22;12.23;;;4.47;;
18159;SDS011;9205;52.032;4.314;2023-02-08T15:12:57;7.50;;;4.13;;
18159;SDS011;9205;52.032;4.314;2023-02-08T15:15:34;9.47;;;5.27;;
18159;SDS011;9205;52.032;4.314;2023-02-08T15:18:22;7.40;;;4.90;;
18159;SDS011;9205;52.032;4.314;2023-02-08T15:21:00;7.67;;;3.87;;
18159;SDS011;9205;52.032;4.314;2023-02-08T15:23:33;7.73;;;4.43;;
18159;SDS011;9205;52.032;4.314;2023-02-08T15:26:18;9.70;;;5.13;;
18159;SDS011;9205;52.032;4.314;2023-02-08T15:28:51;10.47;;;5.03;;
18159;SDS011;9205;52.032;4.314;2023-02-08T15:31:49;8.63;;;4.17;;
18159;SDS011;9205;52.032;4.314;2023-02-08T15:34:33;8.70;;;4.87;;
18159;SDS011;9205;52.032;4.314;2023-02-08T15:37:43;8.40;;;4.87;;
18159;SDS011;9205;52.032;4.314;2023-02-08T15:40:23;8.53;;;4.60;;
18159;SDS011;9205;52.032;4.314;2023-02-08T15:43:02;8.30;;;4.50;;
18159;SDS011;9205;52.032;4.314;2023-02-08T15:45:39;9.03;;;4.90;;
18159;SDS011;9205;52.032;4.314;2023-02-08T15:48:09;9.30;;;4.67;;
18159;SDS011;9205;52.032;4.314;2023-02-08T15:50:42;9.47;;;4.57;;
18159;SDS011;9205;52.032;4.314;2023-02-08T15:53:19;7.40;;;3.90;;
18159;SDS011;9205;52.032;4.314;2023-02-08T15:55:53;8.30;;;4.37;;
18159;SDS011;9205;52.032;4.314;2023-02-08T15:58:27;8.70;;;4.17;;
18159;SDS011;9205;52.032;4.314;2023-02-08T16:01:02;7.33;;;4.57;;
18159;SDS011;9205;52.032;4.314;2023-02-08T16:03:54;7.03;;;4.23;;
18159;SDS011;9205;52.032;4.314;2023-02-08T16:06:50;5.90;;;3.43;;
18159;SDS011;9205;52.032;4.314;2023-02-08T16:09:31;5.27;;;4.00;;
18159;SDS011;9205;52.032;4.314;2023-02-08T16:12:03;8.00;;;3.93;;
18159;SDS011;9205;52.032;4.314;2023-02-08T16:14:46;8.03;;;3.80;;
18159;SDS011;9205;52.032;4.314;2023-02-08T16:17:30;11.03;;;3.80;;
18159;SDS011;9205;52.032;4.314;2023-02-08T16:20:20;5.30;;;3.03;;
18159;SDS011;9205;52.032;4.314;2023-02-08T16:26:14;7.23;;;3.97;;
18159;SDS011;9205;52.032;4.314;2023-02-08T16:28:52;5.90;;;3.73;;
18159;SDS011;9205;52.032;4.314;2023-02-08T16:31:24;7.53;;;4.30;;
18159;SDS011;9205;52.032;4.314;2023-02-08T16:34:03;11.70;;;5.87;;
18159;SDS011;9205;52.032;4.314;2023-02-08T16:36:43;9.50;;;5.40;;
18159;SDS011;9205;52.032;4.314;2023-02-08T16:42:22;10.07;;;5.23;;
18159;SDS011;9205;52.032;4.314;2023-02-08T16:45:11;8.17;;;4.53;;
18159;SDS011;9205;52.032;4.314;2023-02-08T16:48:31;9.50;;;3.73;;
18159;SDS011;9205;52.032;4.314;2023-02-08T17:01:54;8.73;;;4.60;;
18159;SDS011;9205;52.032;4.314;2023-02-08T17:04:50;8.23;;;4.60;;
18159;SDS011;9205;52.032;4.314;2023-02-08T17:07:20;6.63;;;4.27;;
18159;SDS011;9205;52.032;4.314;2023-02-08T17:13:42;11.73;;;4.53;;
18159;SDS011;9205;52.032;4.314;2023-02-08T17:20:38;9.53;;;4.50;;
18159;SDS011;9205;52.032;4.314;2023-02-08T17:23:59;11.73;;;4.83;;
18159;SDS011;9205;52.032;4.314;2023-02-08T17:27:12;8.40;;;4.07;;
18159;SDS011;9205;52.032;4.314;2023-02-08T17:29:52;7.17;;;4.37;;
18159;SDS011;9205;52.032;4.314;2023-02-08T17:32:33;8.90;;;5.00;;
18159;SDS011;9205;52.032;4.314;2023-02-08T17:35:03;7.83;;;5.13;;
18159;SDS011;9205;52.032;4.314;2023-02-08T17:37:34;9.90;;;5.43;;
18159;SDS011;9205;52.032;4.314;2023-02-08T17:40:06;8.60;;;4.27;;
18159;SDS011;9205;52.032;4.314;2023-02-08T17:42:35;10.13;;;5.07;;
18159;SDS011;9205;52.032;4.314;2023-02-08T17:45:07;6.33;;;3.80;;
18159;SDS011;9205;52.032;4.314;2023-02-08T17:47:52;9.30;;;4.70;;
18159;SDS011;9205;52.032;4.314;2023-02-08T17:50:28;7.47;;;4.67;;
18159;SDS011;9205;52.032;4.314;2023-02-08T17:53:19;10.73;;;4.60;;
18159;SDS011;9205;52.032;4.314;2023-02-08T17:56:08;7.80;;;4.57;;
18159;SDS011;9205;52.032;4.314;2023-02-08T17:58:54;12.37;;;4.30;;
18159;SDS011;9205;52.032;4.314;2023-02-08T18:06:07;12.13;;;5.27;;
18159;SDS011;9205;52.032;4.314;2023-02-08T18:08:41;7.90;;;4.30;;
18159;SDS011;9205;52.032;4.314;2023-02-08T18:17:54;11.27;;;4.67;;
18159;SDS011;9205;52.032;4.314;2023-02-08T18:20:22;10.33;;;4.97;;
18159;SDS011;9205;52.032;4.314;2023-02-08T18:22:56;8.77;;;4.83;;
18159;SDS011;9205;52.032;4.314;2023-02-08T18:28:24;8.43;;;4.10;;